Time;durP1;ratioP1;P1;durP2;ratioP2;P2;SDS_P1;SDS_P2;PMS_P1;PMS_P2;Temp;Humidity;BMP_temperature;BMP_pressure;BME280_temperature;BME280_humidity;BME280_pressure;Samples;Min_cycle;Max_cycle;Signal;HPM_P1;HPM_P2
2022/03/02 00:01:38;;;;;;;24.23;14.35;;;;;;;3.80;66.48;100471.69;4964035;28;20046;-74
2022/03/02 00:04:03;;;;;;;22.63;12.73;;;;;;;3.87;66.83;100469.00;4977852;28;20034;-74
2022/03/02 00:06:29;;;;;;;23.02;14.60;;;;;;;3.95;66.04;100460.22;4978430;28;20744;-73
2022/03/02 00:08:54;;;;;;;18.77;12.77;;;;;;;4.03;65.96;100471.41;4978925;28;20041;-75
2022/03/02 00:11:20;;;;;;;23.15;14.10;;;;;;;4.06;65.78;100467.06;4965512;28;20052;-73
2022/03/02 00:13:45;;;;;;;22.83;14.02;;;;;;;4.08;65.35;100461.78;4984043;28;20030;-74
2022/03/02 00:16:12;;;;;;;26.35;14.93;;;;;;;4.12;64.78;100460.88;4984373;28;20041;-74
2022/03/02 00:18:37;;;;;;;24.00;15.45;;;;;;;4.15;64.64;100460.84;4984552;28;20035;-74
2022/03/02 00:21:03;;;;;;;23.38;15.18;;;;;;;4.14;64.80;100455.66;4982504;28;20049;-74
2022/03/02 00:23:29;;;;;;;20.50;14.85;;;;;;;4.20;64.88;100455.56;4983967;28;20038;-74
2022/03/02 00:25:55;;;;;;;21.02;14.43;;;;;;;4.23;65.03;100458.13;4986125;28;20417;-75
2022/03/02 00:28:20;;;;;;;21.85;12.98;;;;;;;4.27;65.34;100452.84;4986559;28;20038;-73
2022/03/02 00:30:46;;;;;;;23.40;15.45;;;;;;;4.37;64.61;100451.00;4984236;28;20688;-74
2022/03/02 00:33:12;;;;;;;22.90;14.80;;;;;;;4.40;64.98;100453.56;4984379;28;20046;-75
2022/03/02 00:35:38;;;;;;;28.35;16.45;;;;;;;4.39;64.56;100451.84;4985062;28;20464;-73
2022/03/02 00:38:04;;;;;;;23.25;15.82;;;;;;;4.42;64.61;100451.78;4984185;28;20038;-74
2022/03/02 00:40:30;;;;;;;24.52;15.13;;;;;;;4.49;64.46;100458.66;4983896;28;20525;-74
2022/03/02 00:42:56;;;;;;;24.15;14.00;;;;;;;4.53;64.71;100459.50;4965976;28;20125;-74
2022/03/02 00:45:21;;;;;;;26.08;14.35;;;;;;;4.57;64.04;100455.09;4984064;28;20134;-74
2022/03/02 00:47:47;;;;;;;28.45;16.33;;;;;;;4.55;63.21;100452.47;4974515;28;20138;-74
2022/03/02 00:50:14;;;;;;;22.13;14.27;;;;;;;4.52;62.86;100448.16;4964725;28;20481;-76
2022/03/02 00:52:39;;;;;;;21.67;13.98;;;;;;;4.47;63.97;100439.53;4962911;28;20042;-74
2022/03/02 00:55:05;;;;;;;24.30;11.68;;;;;;;4.44;63.58;100439.59;4947265;28;20133;-74
2022/03/02 00:57:30;;;;;;;20.95;12.63;;;;;;;4.50;62.69;100436.03;4965910;28;20049;-65
2022/03/02 00:59:56;;;;;;;19.17;12.93;;;;;;;4.70;62.60;100444.47;4971183;28;20034;-64
2022/03/02 01:02:21;;;;;;;19.70;11.88;;;;;;;4.77;61.86;100436.50;4969690;28;20046;-74
2022/03/02 01:04:47;;;;;;;19.13;11.38;;;;;;;4.74;62.53;100435.66;4970457;28;20031;-75
2022/03/02 01:07:12;;;;;;;19.25;11.77;;;;;;;4.73;62.96;100435.72;4971343;28;20043;-76
2022/03/02 01:10:12;;;;;;;19.17;11.85;;;;;;;4.75;62.59;100433.94;4970157;28;20055;-76
2022/03/02 01:12:39;;;;;;;15.70;10.63;;;;;;;4.77;62.46;100432.16;4970799;28;20034;-76
2022/03/02 01:15:05;;;;;;;20.35;11.48;;;;;;;4.78;62.73;100419.97;4958138;28;20711;-76
2022/03/02 01:17:45;;;;;;;17.75;12.45;;;;;;;4.74;62.78;100427.84;4971402;28;20125;-76
2022/03/02 01:20:11;;;;;;;18.90;11.75;;;;;;;4.70;62.48;100420.94;4950435;28;20031;-75
2022/03/02 01:22:37;;;;;;;18.90;11.05;;;;;;;4.68;62.47;100427.09;4961681;28;20035;-75
2022/03/02 01:25:04;;;;;;;18.23;12.18;;;;;;;4.61;63.03;100417.63;4975426;28;20041;-75
2022/03/02 01:27:30;;;;;;;19.80;11.93;;;;;;;4.49;63.47;100416.88;4958258;28;20042;-76
2022/03/02 01:29:55;;;;;;;16.88;11.25;;;;;;;4.45;63.60;100411.72;4971481;28;20038;-75
2022/03/02 01:32:20;;;;;;;15.70;10.90;;;;;;;4.37;63.71;100405.75;4939693;28;20043;-75
2022/03/02 01:34:46;;;;;;;18.00;12.23;;;;;;;4.30;63.85;100411.06;4968469;28;20057;-75
2022/03/02 01:37:11;;;;;;;20.05;12.30;;;;;;;4.25;64.63;100402.44;4970638;28;20038;-75
2022/03/02 01:39:37;;;;;;;20.40;13.13;;;;;;;4.21;63.99;100398.16;4968001;28;20039;-76
2022/03/02 01:42:05;;;;;;;17.50;12.68;;;;;;;4.16;64.25;100396.47;4944072;28;20039;-75
2022/03/02 01:44:31;;;;;;;18.20;12.18;;;;;;;4.13;64.12;100396.50;4965258;28;20136;-75
2022/03/02 01:46:57;;;;;;;18.27;12.02;;;;;;;4.08;64.72;100397.41;4970651;28;20030;-75
2022/03/02 01:49:23;;;;;;;20.42;12.25;;;;;;;4.01;64.67;100395.81;4970547;28;20394;-75
2022/03/02 01:51:48;;;;;;;20.08;12.00;;;;;;;3.97;66.11;100390.63;4969603;28;20601;-75
2022/03/02 01:54:13;;;;;;;18.48;12.18;;;;;;;3.98;66.10;100384.53;4969232;28;20462;-75
2022/03/02 01:56:39;;;;;;;18.48;12.00;;;;;;;3.91;66.10;100381.13;4971133;28;20038;-76
2022/03/02 01:59:04;;;;;;;16.17;10.25;;;;;;;3.93;66.20;100387.19;4955266;28;20096;-76
2022/03/02 02:01:30;;;;;;;16.17;10.75;;;;;;;3.96;66.51;100386.28;4922952;28;20058;-76
2022/03/02 02:03:56;;;;;;;18.50;12.35;;;;;;;3.96;66.47;100386.28;4946197;28;20416;-76
2022/03/02 02:06:22;;;;;;;19.33;12.95;;;;;;;3.88;66.41;100378.56;4970594;28;20038;-76
2022/03/02 02:08:47;;;;;;;14.82;9.88;;;;;;;3.90;66.26;100376.81;4969918;28;20035;-77
2022/03/02 02:11:13;;;;;;;18.75;10.85;;;;;;;3.85;66.02;100376.00;4970139;28;20125;-77
2022/03/02 02:13:40;;;;;;;18.92;12.65;;;;;;;3.79;66.16;100371.72;4966703;28;20560;-77
2022/03/02 02:16:07;;;;;;;17.30;11.63;;;;;;;3.76;66.31;100374.34;4953162;28;20332;-77
2022/03/02 02:18:34;;;;;;;19.95;12.73;;;;;;;3.71;66.78;100380.50;4954225;28;20031;-77
2022/03/02 02:21:04;;;;;;;19.48;11.65;;;;;;;3.65;66.87;100368.41;4969139;28;20105;-75
2022/03/02 02:23:30;;;;;;;23.88;13.43;;;;;;;3.58;67.03;100379.78;4971341;28;20390;-75
2022/03/02 02:25:55;;;;;;;19.27;12.02;;;;;;;3.52;66.73;100378.13;4972016;28;20045;-75
2022/03/02 02:28:24;;;;;;;14.98;10.88;;;;;;;3.51;66.10;100373.78;4975025;28;20049;-76
2022/03/02 02:30:53;;;;;;;15.18;9.23;;;;;;;3.49;67.39;100374.66;4957504;28;20046;-78
2022/03/02 02:33:18;;;;;;;18.83;10.77;;;;;;;3.51;67.38;100371.16;4979868;28;20046;-77
2022/03/02 02:35:57;;;;;;;12.85;8.98;;;;;;;3.55;67.04;100379.84;4976263;28;20035;-76
2022/03/02 02:38:28;;;;;;;15.50;9.43;;;;;;;3.57;66.18;100375.44;4968913;28;20070;-76
2022/03/02 02:40:53;;;;;;;16.65;10.38;;;;;;;3.52;66.56;100378.13;4969596;28;20455;-76
2022/03/02 02:43:23;;;;;;;17.35;11.90;;;;;;;3.52;66.40;100374.63;4969377;28;20038;-76
2022/03/02 02:45:49;;;;;;;20.80;11.20;;;;;;;3.45;66.75;100371.25;4949477;28;20089;-77
2022/03/02 02:48:19;;;;;;;18.70;10.88;;;;;;;3.42;66.67;100382.56;4952925;28;20027;-77
2022/03/02 02:50:48;;;;;;;17.75;10.68;;;;;;;3.37;66.90;100386.06;4953539;28;20041;-77
2022/03/02 02:53:15;;;;;;;21.55;11.93;;;;;;;3.29;67.81;100382.69;4943032;28;20038;-76
2022/03/02 02:56:26;;;;;;;18.90;11.32;;;;;;;3.21;68.27;100375.81;4953263;28;20084;-77
2022/03/02 02:59:12;;;;;;;14.18;9.43;;;;;;;3.16;68.08;100380.22;4928217;28;20046;-76
2022/03/02 03:01:37;;;;;;;16.17;10.30;;;;;;;3.15;68.56;100373.28;4969459;28;20039;-75
2022/03/02 03:04:04;;;;;;;14.07;9.38;;;;;;;3.18;68.45;100377.59;4957525;28;20034;-75
2022/03/02 03:06:30;;;;;;;23.25;11.65;;;;;;;3.14;68.47;100365.47;4970881;28;20031;-75
2022/03/02 03:08:55;;;;;;;17.25;11.18;;;;;;;3.06;69.16;100368.16;4970272;28;20113;-76
2022/03/02 03:11:21;;;;;;;18.95;11.63;;;;;;;2.97;68.73;100366.47;4969970;28;20030;-76
2022/03/02 03:13:46;;;;;;;17.77;11.02;;;;;;;2.99;69.67;100376.91;4906569;28;20550;-74
2022/03/02 03:16:12;;;;;;;18.67;11.77;;;;;;;2.98;69.09;100373.44;4978122;28;20046;-77
2022/03/02 03:18:37;;;;;;;24.77;14.43;;;;;;;2.96;68.66;100359.56;4973269;28;20027;-76
2022/03/02 03:21:02;;;;;;;20.00;12.15;;;;;;;2.97;68.48;100368.22;4969659;28;20042;-76
2022/03/02 03:23:28;;;;;;;20.33;10.48;;;;;;;2.97;67.79;100378.63;4969584;28;20487;-77
2022/03/02 03:25:55;;;;;;;17.52;11.93;;;;;;;2.96;68.10;100366.50;4971499;28;20031;-74
2022/03/02 03:28:20;;;;;;;17.02;10.88;;;;;;;2.89;69.03;100359.63;4949036;28;20459;-76
2022/03/02 03:30:46;;;;;;;16.77;10.77;;;;;;;2.83;68.94;100351.84;4958501;28;20077;-76
2022/03/02 03:33:11;;;;;;;19.00;11.18;;;;;;;2.75;69.57;100363.19;4984063;28;20035;-76
2022/03/02 03:35:37;;;;;;;17.20;11.02;;;;;;;2.77;69.91;100361.44;4976101;28;20039;-76
2022/03/02 03:38:03;;;;;;;14.75;10.48;;;;;;;2.78;69.51;100351.88;4978631;28;20051;-76
2022/03/02 03:40:28;;;;;;;22.30;11.35;;;;;;;2.84;69.28;100351.00;4978609;28;20086;-75
2022/03/02 03:43:39;;;;;;;20.75;13.15;;;;;;;2.84;69.46;100348.38;4976200;28;20036;-76
2022/03/02 03:46:24;;;;;;;18.10;12.38;;;;;;;2.85;68.67;100350.97;4984210;28;20165;-74
2022/03/02 03:48:50;;;;;;;15.30;10.23;;;;;;;2.88;67.61;100342.25;4968817;28;20625;-75
2022/03/02 03:51:15;;;;;;;17.98;11.50;;;;;;;2.90;68.04;100343.13;4955257;28;20751;-75
2022/03/02 03:53:41;;;;;;;21.35;12.23;;;;;;;2.91;68.74;100340.50;4972736;28;20039;-76
2022/03/02 03:56:06;;;;;;;20.77;12.00;;;;;;;2.92;68.76;100341.38;4973322;28;20414;-76
2022/03/02 03:59:01;;;;;;;15.63;9.73;;;;;;;2.92;68.91;100343.97;4975659;28;20038;-76
2022/03/02 04:01:46;;;;;;;18.08;11.43;;;;;;;2.93;69.09;100343.06;4950294;28;20125;-76
2022/03/02 04:04:12;;;;;;;20.08;11.35;;;;;;;2.96;68.94;100338.72;4953242;28;20122;-76
2022/03/02 04:06:37;;;;;;;16.92;11.38;;;;;;;3.01;68.64;100339.53;4969636;28;20118;-76
2022/03/02 04:09:03;;;;;;;15.15;10.57;;;;;;;3.03;68.75;100336.94;4972426;28;20027;-75
2022/03/02 04:11:30;;;;;;;16.23;11.55;;;;;;;2.96;68.65;100330.91;4971616;28;20035;-76
2022/03/02 04:13:56;;;;;;;17.02;11.00;;;;;;;2.92;68.92;100320.53;4963808;28;20498;-76
2022/03/02 04:16:22;;;;;;;20.42;12.85;;;;;;;2.87;68.88;100322.31;4971076;28;20089;-75
2022/03/02 04:18:47;;;;;;;19.50;12.02;;;;;;;2.88;68.61;100322.31;4972561;28;20031;-75
2022/03/02 04:21:13;;;;;;;17.98;10.38;;;;;;;2.89;68.27;100317.97;4970917;28;20035;-76
2022/03/02 04:23:38;;;;;;;19.52;10.75;;;;;;;2.90;68.77;100312.72;4972394;28;20098;-76
2022/03/02 04:26:04;;;;;;;18.98;9.88;;;;;;;2.91;68.54;100316.22;4955366;28;20057;-76
2022/03/02 04:28:29;;;;;;;16.17;10.60;;;;;;;2.88;68.32;100319.72;4970266;28;20031;-75
2022/03/02 04:30:55;;;;;;;16.42;11.43;;;;;;;2.83;68.54;100315.41;4970844;28;20050;-75
2022/03/02 04:33:20;;;;;;;16.42;10.57;;;;;;;2.78;68.83;100315.44;4954372;28;20038;-75
2022/03/02 04:35:45;;;;;;;16.65;10.25;;;;;;;2.73;69.50;100315.50;4970405;28;20039;-76
2022/03/02 04:38:11;;;;;;;15.55;10.43;;;;;;;2.68;69.37;100313.78;4954702;28;20027;-75
2022/03/02 04:40:37;;;;;;;18.33;10.88;;;;;;;2.66;69.38;100318.16;4970713;28;20455;-76
2022/03/02 04:43:03;;;;;;;18.08;9.57;;;;;;;2.62;69.65;100306.06;4975642;28;20050;-76
2022/03/02 04:45:29;;;;;;;16.98;9.75;;;;;;;2.56;70.12;100314.78;4954725;28;20530;-75
2022/03/02 04:47:57;;;;;;;17.02;11.18;;;;;;;2.56;70.10;100314.78;4966255;28;20035;-76
2022/03/02 04:50:22;;;;;;;14.55;9.38;;;;;;;2.56;70.02;100314.78;4973527;28;20065;-75
2022/03/02 04:52:49;;;;;;;11.80;8.10;;;;;;;2.58;69.90;100307.81;4954344;28;20030;-75
2022/03/02 04:55:16;;;;;;;15.13;10.57;;;;;;;2.60;70.07;100300.84;4972053;28;20058;-76
2022/03/02 04:57:48;;;;;;;14.13;9.52;;;;;;;2.57;69.76;100300.88;4971582;28;20027;-75
2022/03/02 05:00:21;;;;;;;18.88;10.75;;;;;;;2.61;68.96;100293.91;4971196;28;20384;-75
2022/03/02 05:02:46;;;;;;;18.38;10.93;;;;;;;2.61;69.28;100288.69;4953490;28;20594;-75
2022/03/02 05:05:15;;;;;;;17.92;11.45;;;;;;;2.54;69.31;100295.72;4971442;28;20034;-75
2022/03/02 05:07:41;;;;;;;15.10;9.45;;;;;;;2.50;69.58;100294.00;4970703;28;21013;-74
2022/03/02 05:10:08;;;;;;;14.15;9.43;;;;;;;2.43;69.95;100289.72;4984744;28;20402;-73
2022/03/02 05:12:34;;;;;;;13.48;9.85;;;;;;;2.40;70.04;100292.34;4995915;28;20133;-74
2022/03/02 05:15:00;;;;;;;16.55;10.85;;;;;;;2.33;69.93;100284.56;4991137;28;20121;-74
2022/03/02 05:17:25;;;;;;;18.60;10.38;;;;;;;2.36;69.66;100288.88;4972876;28;20406;-74
2022/03/02 05:19:51;;;;;;;15.52;9.85;;;;;;;2.33;69.66;100287.19;4975592;28;20053;-72
2022/03/02 05:22:17;;;;;;;15.90;11.20;;;;;;;2.32;69.84;100284.59;4957937;28;20042;-75
2022/03/02 05:24:42;;;;;;;13.45;8.60;;;;;;;2.34;70.08;100291.53;4955510;28;20031;-75
2022/03/02 05:27:08;;;;;;;20.50;10.25;;;;;;;2.35;69.06;100290.63;4971476;28;20491;-75
2022/03/02 05:29:35;;;;;;;15.82;9.52;;;;;;;2.32;68.97;100289.81;4967713;28;20572;-75
2022/03/02 05:32:00;;;;;;;17.40;9.68;;;;;;;2.31;68.72;100288.06;4972358;28;20042;-74
2022/03/02 05:34:26;;;;;;;14.85;10.38;;;;;;;2.27;69.63;100282.03;4972754;28;20410;-74
2022/03/02 05:36:51;;;;;;;14.82;9.50;;;;;;;2.25;69.54;100280.31;4989803;28;20046;-74
2022/03/02 05:39:17;;;;;;;19.95;11.52;;;;;;;2.23;69.85;100287.25;4992084;28;20041;-73
2022/03/02 05:41:42;;;;;;;14.90;10.05;;;;;;;2.22;69.94;100276.00;4978261;28;20045;-74
2022/03/02 05:44:08;;;;;;;15.57;10.50;;;;;;;2.19;70.00;100277.75;4989470;28;20109;-75
2022/03/02 05:46:37;;;;;;;15.45;10.13;;;;;;;2.18;70.17;100271.69;4990177;28;20038;-73
2022/03/02 05:49:04;;;;;;;14.13;9.65;;;;;;;2.17;70.07;100274.28;4990189;28;20036;-75
2022/03/02 05:51:30;;;;;;;17.80;10.23;;;;;;;2.20;70.00;100271.69;4985853;28;20047;-75
2022/03/02 05:53:57;;;;;;;13.55;10.02;;;;;;;2.15;70.14;100284.72;4953409;28;20048;-74
2022/03/02 05:56:23;;;;;;;18.85;11.02;;;;;;;2.12;70.02;100279.56;4952430;28;20039;-74
2022/03/02 05:58:49;;;;;;;15.02;10.10;;;;;;;2.15;70.18;100287.31;4969072;28;20038;-75
2022/03/02 06:01:15;;;;;;;16.35;10.88;;;;;;;2.14;69.75;100286.47;4969751;28;20034;-73
2022/03/02 06:03:40;;;;;;;16.80;10.88;;;;;;;2.18;69.84;100284.69;4953288;28;20041;-74
2022/03/02 06:06:06;;;;;;;17.88;9.98;;;;;;;2.19;69.81;100283.84;4948917;28;20059;-75
2022/03/02 06:08:32;;;;;;;15.43;10.93;;;;;;;2.20;69.69;100295.09;4970649;28;20046;-75
2022/03/02 06:10:58;;;;;;;18.95;11.68;;;;;;;2.18;69.90;100291.63;4970503;28;20113;-74
2022/03/02 06:13:23;;;;;;;14.20;9.20;;;;;;;2.15;70.15;100285.59;4968885;28;20039;-75
2022/03/02 06:15:49;;;;;;;16.77;10.13;;;;;;;2.13;70.32;100284.72;4970240;28;20034;-75
2022/03/02 06:18:15;;;;;;;15.02;10.38;;;;;;;2.10;70.34;100287.34;4971074;28;20038;-75
2022/03/02 06:20:42;;;;;;;15.15;9.82;;;;;;;2.10;70.67;100284.75;4971026;28;20066;-73
2022/03/02 06:23:07;;;;;;;19.35;10.57;;;;;;;2.09;70.33;100285.63;4980910;28;20114;-73
2022/03/02 06:25:33;;;;;;;15.98;10.35;;;;;;;2.09;70.85;100289.94;4991780;28;20698;-73
2022/03/02 06:27:58;;;;;;;19.90;11.60;;;;;;;2.11;70.55;100293.41;4989523;28;20031;-75
2022/03/02 06:30:24;;;;;;;17.20;10.45;;;;;;;2.12;70.62;100298.63;4988522;28;20052;-74
2022/03/02 06:32:50;;;;;;;20.73;12.10;;;;;;;2.14;70.14;100295.97;4987625;28;20034;-73
2022/03/02 06:35:15;;;;;;;18.95;11.18;;;;;;;2.14;69.75;100295.97;4987432;28;20042;-74
2022/03/02 06:37:41;;;;;;;15.88;9.63;;;;;;;2.14;70.24;100293.38;4990019;28;20034;-74
2022/03/02 06:40:09;;;;;;;14.60;10.48;;;;;;;2.15;70.13;100300.31;4990113;28;20418;-74
2022/03/02 06:43:04;;;;;;;21.38;10.70;;;;;;;2.15;70.33;100287.31;4990284;28;20033;-75
2022/03/02 06:45:49;;;;;;;12.30;8.50;;;;;;;2.21;70.15;100289.00;4981572;28;20042;-74
2022/03/02 06:48:21;;;;;;;19.63;11.98;;;;;;;2.22;70.28;100289.00;4988417;28;20398;-74
2022/03/02 06:50:51;;;;;;;18.38;10.60;;;;;;;2.24;70.40;100294.19;4988808;28;20129;-73
2022/03/02 06:53:22;;;;;;;16.67;9.52;;;;;;;2.29;70.22;100292.41;4972045;28;20043;-73
2022/03/02 06:55:48;;;;;;;19.35;11.32;;;;;;;2.32;70.00;100292.41;4988832;28;20030;-76
2022/03/02 06:58:17;;;;;;;18.98;12.60;;;;;;;2.40;69.50;100297.56;4971479;28;20393;-75
2022/03/02 07:00:51;;;;;;;18.58;11.18;;;;;;;2.43;69.15;100294.91;4968401;28;20042;-74
2022/03/02 07:03:18;;;;;;;18.90;10.77;;;;;;;2.46;68.79;100295.78;4956852;28;20035;-74
2022/03/02 07:05:46;;;;;;;21.60;10.80;;;;;;;2.50;68.80;100297.47;4973595;28;20031;-75
2022/03/02 07:08:11;;;;;;;20.90;12.13;;;;;;;2.51;68.94;100291.41;4974041;28;20031;-76
2022/03/02 07:10:37;;;;;;;19.33;12.30;;;;;;;2.55;69.07;100292.22;4956834;28;20035;-75
2022/03/02 07:13:06;;;;;;;19.20;10.45;;;;;;;2.58;68.73;100294.78;4978743;28;20039;-74
2022/03/02 07:15:33;;;;;;;18.67;10.63;;;;;;;2.58;68.94;100285.25;4967339;28;20471;-76
2022/03/02 07:18:00;;;;;;;15.95;10.50;;;;;;;2.66;68.47;100284.31;4980549;28;20557;-75
2022/03/02 07:20:27;;;;;;;21.13;12.82;;;;;;;2.68;68.42;100280.81;4973530;28;20043;-75
2022/03/02 07:22:53;;;;;;;15.98;10.88;;;;;;;2.68;68.70;100286.03;4955612;28;20041;-75
2022/03/02 07:25:30;;;;;;;21.45;12.68;;;;;;;2.78;68.61;100281.59;4972754;28;20399;-75
2022/03/02 07:27:56;;;;;;;22.42;13.73;;;;;;;2.87;67.95;100281.50;4955820;28;20035;-75
2022/03/02 07:30:22;;;;;;;25.85;13.10;;;;;;;2.94;67.61;100279.72;4972903;28;20043;-75
2022/03/02 07:32:47;;;;;;;21.88;13.07;;;;;;;3.03;67.94;100281.34;4973010;28;20090;-74
2022/03/02 07:35:16;;;;;;;21.98;13.65;;;;;;;3.12;67.54;100274.28;4973416;28;20039;-74
2022/03/02 07:37:44;;;;;;;27.38;14.00;;;;;;;3.25;67.17;100272.44;4956953;28;20038;-75
2022/03/02 07:40:10;;;;;;;17.17;11.48;;;;;;;3.38;66.58;100287.03;4954769;28;20039;-75
2022/03/02 07:42:37;;;;;;;17.25;11.93;;;;;;;3.49;64.46;100284.28;4955811;28;20519;-74
2022/03/02 07:45:04;;;;;;;24.02;12.45;;;;;;;3.55;63.03;100284.22;4939486;28;20032;-74
2022/03/02 07:47:29;;;;;;;21.30;11.52;;;;;;;3.61;62.43;100281.53;4954983;28;20503;-73
2022/03/02 07:49:55;;;;;;;21.42;12.52;;;;;;;3.70;64.33;100272.75;4953418;28;20038;-74
2022/03/02 07:52:25;;;;;;;26.95;13.00;;;;;;;3.75;63.49;100273.53;4953059;28;20114;-75
2022/03/02 07:54:57;;;;;;;19.88;12.77;;;;;;;3.87;63.18;100269.91;4951663;28;20036;-74
2022/03/02 07:57:23;;;;;;;18.27;11.20;;;;;;;3.87;62.97;100262.94;4952404;28;20131;-74
2022/03/02 07:59:49;;;;;;;21.05;12.02;;;;;;;3.94;61.26;100276.78;4953909;28;20052;-75
2022/03/02 08:02:15;;;;;;;18.33;12.55;;;;;;;4.05;61.72;100272.25;4953228;28;20626;-75
2022/03/02 08:04:41;;;;;;;18.42;11.98;;;;;;;4.14;61.12;100267.78;4952393;28;20039;-74
2022/03/02 08:07:07;;;;;;;20.48;13.20;;;;;;;4.25;60.14;100271.06;4970544;28;20050;-74
2022/03/02 08:09:34;;;;;;;18.45;11.75;;;;;;;4.27;60.27;100272.78;4974471;28;20047;-75
2022/03/02 08:12:01;;;;;;;19.45;11.50;;;;;;;4.41;59.78;100277.78;4960356;28;20053;-74
2022/03/02 08:14:27;;;;;;;21.02;12.50;;;;;;;4.48;58.28;100279.41;4971975;28;20043;-74
2022/03/02 08:16:52;;;;;;;24.60;12.80;;;;;;;4.58;57.77;100274.91;4971231;28;20121;-74
2022/03/02 08:19:19;;;;;;;25.17;13.95;;;;;;;4.62;57.35;100276.56;4972960;28;20486;-68
2022/03/02 08:21:50;;;;;;;21.60;13.65;;;;;;;4.73;57.26;100276.41;4971636;28;20065;-67
2022/03/02 08:24:17;;;;;;;28.55;13.35;;;;;;;4.87;55.79;100277.00;4971732;28;20042;-69
2022/03/02 08:26:47;;;;;;;23.63;11.77;;;;;;;5.01;55.25;100274.13;4972736;28;20163;-68
2022/03/02 08:29:13;;;;;;;22.88;12.18;;;;;;;5.00;54.39;100279.41;4972283;28;20035;-68
2022/03/02 08:31:41;;;;;;;25.50;13.57;;;;;;;5.20;55.54;100279.03;4972240;28;20069;-68
2022/03/02 08:34:07;;;;;;;26.10;14.07;;;;;;;5.25;54.95;100278.03;4972310;28;20042;-68
2022/03/02 08:36:34;;;;;;;24.08;13.38;;;;;;;5.38;53.83;100278.66;4971986;28;20035;-68
2022/03/02 08:39:13;;;;;;;20.92;13.25;;;;;;;5.39;54.40;100275.16;4970586;28;20060;-67
2022/03/02 08:41:39;;;;;;;30.55;15.60;;;;;;;5.45;53.70;100288.09;4971202;28;20494;-68
2022/03/02 08:44:05;;;;;;;22.98;12.38;;;;;;;5.55;52.16;100280.94;4971893;28;20541;-67
2022/03/02 08:46:32;;;;;;;19.02;12.25;;;;;;;5.71;52.32;100282.34;4954055;28;20034;-68
2022/03/02 08:48:57;;;;;;;22.83;13.52;;;;;;;5.83;50.85;100270.72;4971787;28;20039;-68
2022/03/02 08:51:25;;;;;;;20.52;12.52;;;;;;;5.98;50.25;100274.78;4971066;28;20042;-67
2022/03/02 08:53:53;;;;;;;21.20;12.00;;;;;;;6.17;49.94;100273.47;4952503;28;20173;-74
2022/03/02 08:56:20;;;;;;;22.33;11.52;;;;;;;6.32;48.77;100274.88;4944143;28;21561;-74
2022/03/02 08:58:45;;;;;;;17.25;11.38;;;;;;;6.40;48.26;100269.47;4912407;28;20411;-74
2022/03/02 09:01:13;;;;;;;21.35;12.30;;;;;;;6.53;47.85;100263.03;4944862;28;20522;-75
2022/03/02 09:03:43;;;;;;;20.77;10.20;;;;;;;6.66;46.27;100255.69;4962332;28;20818;-75
2022/03/02 09:06:10;;;;;;;20.13;9.73;;;;;;;6.97;45.88;100247.91;4929482;28;20054;-74
2022/03/02 09:08:40;;;;;;;18.10;10.60;;;;;;;8.00;44.84;100247.53;4915317;28;20039;-74
2022/03/02 09:11:07;;;;;;;24.75;10.80;;;;;;;9.10;40.47;100237.75;4957338;28;20038;-74
2022/03/02 09:13:32;;;;;;;14.73;10.15;;;;;;;10.17;38.77;100237.22;4921312;28;20069;-74
2022/03/02 09:15:58;;;;;;;16.58;10.40;;;;;;;11.11;36.96;100226.25;4953524;28;20104;-74
2022/03/02 09:18:23;;;;;;;15.50;10.40;;;;;;;12.10;35.27;100230.50;4941007;28;20039;-74
2022/03/02 09:20:56;;;;;;;13.73;10.63;;;;;;;13.19;33.50;100219.69;4949029;28;20048;-75
2022/03/02 09:23:27;;;;;;;12.30;9.15;;;;;;;14.08;32.71;100218.34;4958447;28;20039;-75
2022/03/02 09:25:56;;;;;;;21.30;9.57;;;;;;;14.66;30.68;100215.94;4964668;28;20037;-75
2022/03/02 09:28:26;;;;;;;12.75;9.90;;;;;;;15.30;29.31;100209.38;4963346;28;20525;-74
2022/03/02 09:30:52;;;;;;;13.90;9.30;;;;;;;15.92;27.75;100209.00;4963559;28;20026;-74
2022/03/02 09:33:23;;;;;;;14.20;10.68;;;;;;;16.46;26.22;100203.66;4964223;28;20137;-73
2022/03/02 09:35:48;;;;;;;14.50;9.82;;;;;;;16.71;26.42;100204.66;4964074;28;20122;-74
2022/03/02 09:38:14;;;;;;;19.48;15.73;;;;;;;17.04;25.93;100204.22;4964854;28;20767;-74
2022/03/02 09:40:46;;;;;;;13.63;10.18;;;;;;;17.25;25.49;100199.19;4963908;28;20483;-74
2022/03/02 09:43:19;;;;;;;23.70;12.15;;;;;;;17.12;25.14;100191.19;4963997;28;20034;-74
2022/03/02 09:45:48;;;;;;;12.50;10.02;;;;;;;17.16;24.65;100195.38;4964469;28;20077;-75
2022/03/02 09:48:31;;;;;;;18.33;12.20;;;;;;;17.15;23.98;100196.34;4964731;28;20047;-73
2022/03/02 09:51:02;;;;;;;16.55;10.63;;;;;;;17.04;24.47;100195.38;4963289;28;20057;-74
2022/03/02 09:53:30;;;;;;;15.90;9.75;;;;;;;17.46;23.58;100187.97;4964507;28;20660;-73
2022/03/02 09:56:01;;;;;;;12.45;9.10;;;;;;;17.65;22.23;100184.84;4964309;28;20062;-73
2022/03/02 09:58:27;;;;;;;11.98;9.68;;;;;;;17.78;21.28;100183.81;4963819;28;20510;-77
2022/03/02 10:00:56;;;;;;;12.30;8.18;;;;;;;18.44;21.08;100184.31;4961483;28;20767;-74
2022/03/02 10:03:34;;;;;;;12.60;7.80;;;;;;;18.41;19.46;100183.66;4963630;28;20525;-74
2022/03/02 10:06:05;;;;;;;10.27;9.00;;;;;;;18.49;19.39;100178.63;4961432;28;20030;-76
2022/03/02 10:08:35;;;;;;;12.13;7.97;;;;;;;18.70;19.90;100176.09;4965386;28;20034;-74
2022/03/02 10:11:06;;;;;;;11.05;6.80;;;;;;;19.11;19.38;100173.91;4947902;28;20034;-73
2022/03/02 10:13:33;;;;;;;16.75;10.88;;;;;;;19.69;18.73;100163.91;4945874;28;20034;-76
2022/03/02 10:16:03;;;;;;;9.88;7.50;;;;;;;19.16;18.00;100171.72;4963694;28;20439;-73
2022/03/02 10:18:34;;;;;;;12.20;7.78;;;;;;;18.81;18.94;100164.66;4963688;28;20732;-73
2022/03/02 10:21:04;;;;;;;8.98;7.57;;;;;;;19.48;17.91;100159.31;4982207;28;20513;-74
2022/03/02 10:23:35;;;;;;;9.35;7.65;;;;;;;19.62;18.24;100160.88;4966011;28;20043;-74
2022/03/02 10:26:23;;;;;;;9.38;7.40;;;;;;;19.49;17.78;100162.81;4962874;28;20093;-74
2022/03/02 10:29:00;;;;;;;10.15;7.40;;;;;;;19.43;17.64;100153.47;4961932;28;20560;-73
2022/03/02 10:31:44;;;;;;;9.30;6.75;;;;;;;20.10;17.31;100160.50;4963867;28;20049;-75
2022/03/02 10:34:25;;;;;;;20.65;8.63;;;;;;;19.91;17.85;100160.34;4962746;28;20122;-75
2022/03/02 10:37:00;;;;;;;9.23;7.30;;;;;;;19.92;17.49;100156.69;4959662;28;20049;-75
2022/03/02 10:39:48;;;;;;;9.90;7.80;;;;;;;19.31;18.04;100157.13;4963280;28;20582;-74
2022/03/02 10:42:20;;;;;;;11.05;8.20;;;;;;;18.81;19.01;100157.47;4960312;28;20039;-74
2022/03/02 10:45:08;;;;;;;8.75;7.70;;;;;;;18.59;19.25;100155.59;4982213;28;20061;-75
2022/03/02 10:47:38;;;;;;;11.70;8.48;;;;;;;18.39;19.89;100158.94;4968264;28;20082;-75
2022/03/02 10:50:04;;;;;;;15.15;10.13;;;;;;;18.08;20.45;100158.56;4961507;28;20042;-73
2022/03/02 10:52:35;;;;;;;14.73;8.25;;;;;;;17.47;21.65;100160.34;4945009;28;20442;-75
2022/03/02 10:55:05;;;;;;;11.68;8.32;;;;;;;16.74;24.28;100157.41;4976800;28;20034;-74
2022/03/02 10:57:32;;;;;;;14.77;10.15;;;;;;;15.91;25.02;100163.94;4982897;28;20065;-74
2022/03/02 11:00:04;;;;;;;21.20;10.05;;;;;;;15.34;26.25;100155.09;4966026;28;20050;-75
2022/03/02 11:02:33;;;;;;;13.73;11.55;;;;;;;14.71;26.68;100156.31;4942739;28;20098;-73
2022/03/02 11:05:02;;;;;;;14.45;9.48;;;;;;;14.38;27.29;100162.66;4943529;28;20069;-72
2022/03/02 11:07:28;;;;;;;15.70;11.40;;;;;;;13.78;29.02;100164.41;4944029;28;20058;-73
2022/03/02 11:09:54;;;;;;;12.68;9.95;;;;;;;13.57;29.31;100166.47;4951311;28;20045;-73
2022/03/02 11:12:22;;;;;;;14.35;11.05;;;;;;;13.42;30.59;100162.88;4947792;28;20610;-73
2022/03/02 11:14:58;;;;;;;14.98;11.35;;;;;;;12.94;30.49;100161.91;4933296;28;20047;-76
2022/03/02 11:17:23;;;;;;;20.55;10.85;;;;;;;12.51;30.64;100159.72;4927438;28;20054;-75
2022/03/02 11:19:49;;;;;;;23.00;12.68;;;;;;;12.10;31.72;100160.00;4943909;28;20047;-71
2022/03/02 11:22:18;;;;;;;17.17;12.23;;;;;;;11.98;31.94;100160.59;4943049;28;20031;-73